createdAt,value
2022-09-26T00:00:42.351Z,16.87
2022-09-26T00:03:25.777Z,16.79
2022-09-26T00:05:54.128Z,16.99
2022-09-26T00:08:25.082Z,17.04
2022-09-26T00:11:01.851Z,16.40
2022-09-26T00:13:31.877Z,15.66
2022-09-26T00:16:04.184Z,15.10
2022-09-26T00:18:34.948Z,15.02
2022-09-26T00:21:10.944Z,15.95
2022-09-26T00:23:44.779Z,16.61
2022-09-26T00:26:14.882Z,17.37
2022-09-26T00:28:44.309Z,17.71
2022-09-26T00:31:22.326Z,16.95
2022-09-26T00:33:53.133Z,16.06
2022-09-26T00:36:29.785Z,15.40
2022-09-26T00:39:06.581Z,15.25
2022-09-26T00:41:36.091Z,16.21
2022-09-26T00:44:35.301Z,16.76
2022-09-26T00:47:06.466Z,16.95
2022-09-26T00:49:42.260Z,17.02
2022-09-26T00:52:17.002Z,16.72
2022-09-26T00:54:48.482Z,16.64
2022-09-26T00:57:22.196Z,17.05
2022-09-26T00:59:57.744Z,16.74
2022-09-26T01:02:29.586Z,15.97
2022-09-26T01:04:59.479Z,15.31
2022-09-26T01:07:30.147Z,14.77
2022-09-26T01:09:59.216Z,14.54
2022-09-26T01:12:27.329Z,14.86
2022-09-26T01:14:57.153Z,15.11
2022-09-26T01:17:26.661Z,15.55
2022-09-26T01:20:19.917Z,15.77
2022-09-26T01:23:12.580Z,15.77
2022-09-26T01:26:15.982Z,15.68
2022-09-26T01:29:17.947Z,15.52
2022-09-26T01:32:32.411Z,15.25
2022-09-26T01:35:14.617Z,14.42
2022-09-26T01:38:11.646Z,13.82
2022-09-26T01:40:58.311Z,13.64
2022-09-26T01:43:50.532Z,14.37
2022-09-26T01:46:41.535Z,15.03
2022-09-26T01:49:18.112Z,15.49
2022-09-26T01:51:57.145Z,15.65
2022-09-26T01:54:31.855Z,15.80
2022-09-26T01:57:04.851Z,15.97
2022-09-26T01:59:40.941Z,16.18
2022-09-26T02:02:27.440Z,16.56
2022-09-26T02:05:06.252Z,16.54
2022-09-26T02:07:41.452Z,15.67
2022-09-26T02:10:23.236Z,14.83
2022-09-26T02:12:57.924Z,14.18
2022-09-26T02:15:27.669Z,13.67
2022-09-26T02:18:03.497Z,13.57
2022-09-26T02:20:35.237Z,14.75
2022-09-26T02:23:05.151Z,15.71
2022-09-26T02:25:33.554Z,15.76
2022-09-26T02:28:01.930Z,14.94
2022-09-26T02:30:30.729Z,14.15
2022-09-26T02:33:00.010Z,13.54
2022-09-26T02:35:46.743Z,13.33
2022-09-26T02:38:15.023Z,14.45
2022-09-26T02:41:13.335Z,15.61
2022-09-26T02:44:29.743Z,15.99
2022-09-26T02:47:19.703Z,14.86
2022-09-26T02:49:59.964Z,13.97
2022-09-26T02:52:56.096Z,13.37
2022-09-26T02:55:34.972Z,13.41
2022-09-26T02:58:36.284Z,14.79
2022-09-26T03:01:27.697Z,15.84
2022-09-26T03:04:05.201Z,15.37
2022-09-26T03:06:49.182Z,14.46
2022-09-26T03:09:18.649Z,13.67
2022-09-26T03:11:48.466Z,13.10
2022-09-26T03:14:21.287Z,12.92
2022-09-26T03:16:51.774Z,13.80
2022-09-26T03:19:39.625Z,14.31
2022-09-26T03:22:09.645Z,14.34
2022-09-26T03:24:38.025Z,14.32
2022-09-26T03:27:06.352Z,14.73
2022-09-26T03:29:36.215Z,14.66
2022-09-26T03:32:06.028Z,13.98
2022-09-26T03:34:34.616Z,13.27
2022-09-26T03:37:02.796Z,12.72
2022-09-26T03:39:30.980Z,12.46
2022-09-26T03:42:06.355Z,13.33
2022-09-26T03:44:35.223Z,14.46
2022-09-26T03:47:18.247Z,15.00
2022-09-26T03:49:49.679Z,15.24
2022-09-26T03:52:18.003Z,15.40
2022-09-26T03:54:48.947Z,14.71
2022-09-26T03:57:20.474Z,13.87
2022-09-26T03:59:52.793Z,13.21
2022-09-26T04:02:21.320Z,12.73
2022-09-26T04:04:52.286Z,12.55
2022-09-26T04:07:20.550Z,13.23
2022-09-26T04:09:48.939Z,14.37
2022-09-26T04:12:18.039Z,15.28
2022-09-26T04:14:46.928Z,15.51
2022-09-26T04:17:14.994Z,14.75
2022-09-26T04:19:45.218Z,13.91
2022-09-26T04:22:13.810Z,13.27
2022-09-26T04:24:44.445Z,13.08
2022-09-26T04:27:15.557Z,14.07
2022-09-26T04:29:46.001Z,15.29
2022-09-26T04:32:34.777Z,16.19
2022-09-26T04:35:35.313Z,16.21
2022-09-26T04:38:04.934Z,15.30
2022-09-26T04:40:34.108Z,14.45
2022-09-26T04:43:06.879Z,13.79
2022-09-26T04:45:35.153Z,13.29
2022-09-26T04:48:03.847Z,13.11
2022-09-26T04:51:11.918Z,14.11
2022-09-26T04:53:44.175Z,15.12
2022-09-26T04:56:26.684Z,15.72
2022-09-26T04:58:56.665Z,15.94
2022-09-26T05:01:27.538Z,15.94
2022-09-26T05:04:04.200Z,15.20
2022-09-26T05:06:34.533Z,14.44
2022-09-26T05:09:06.264Z,14.10
2022-09-26T05:11:44.820Z,14.88
2022-09-26T05:14:13.730Z,15.75
2022-09-26T05:16:42.476Z,16.29
2022-09-26T05:19:13.914Z,16.38
2022-09-26T05:21:52.068Z,16.31
2022-09-26T05:24:39.403Z,16.38
2022-09-26T05:27:08.185Z,16.43
2022-09-26T05:29:36.371Z,16.47
2022-09-26T05:32:07.327Z,16.56
2022-09-26T05:34:41.427Z,16.57
2022-09-26T05:37:12.875Z,16.66
2022-09-26T05:39:59.697Z,16.78
2022-09-26T05:42:28.344Z,16.83
2022-09-26T05:44:56.560Z,16.91
2022-09-26T05:47:26.509Z,16.99
2022-09-26T05:49:54.866Z,17.19
2022-09-26T05:52:23.807Z,17.12
2022-09-26T05:54:52.452Z,16.37
2022-09-26T05:58:01.183Z,15.49
2022-09-26T06:00:52.016Z,15.13
2022-09-26T06:03:20.662Z,15.59
2022-09-26T06:06:11.200Z,15.97
2022-09-26T06:08:41.720Z,16.07
2022-09-26T06:11:35.031Z,16.12
2022-09-26T06:14:05.417Z,16.35
2022-09-26T06:16:34.609Z,16.39
2022-09-26T06:19:06.232Z,16.28
2022-09-26T06:21:40.086Z,16.14
2022-09-26T06:24:15.003Z,16.21
2022-09-26T06:26:45.018Z,16.32
2022-09-26T06:29:19.561Z,16.28
2022-09-26T06:31:54.728Z,16.26
2022-09-26T06:34:52.984Z,16.25
2022-09-26T06:37:41.843Z,16.69
2022-09-26T06:40:11.959Z,16.74
2022-09-26T06:42:41.165Z,16.53
2022-09-26T06:45:27.739Z,16.34
2022-09-26T06:48:12.131Z,16.37
2022-09-26T06:51:00.793Z,16.73
2022-09-26T06:53:32.849Z,16.91
2022-09-26T06:56:03.843Z,16.94
2022-09-26T06:58:35.479Z,16.74
2022-09-26T07:01:07.851Z,16.50
2022-09-26T07:04:04.960Z,16.75
2022-09-26T07:06:38.809Z,16.80
2022-09-26T07:09:12.178Z,17.08
2022-09-26T07:12:15.772Z,17.22
2022-09-26T07:14:50.075Z,17.28
2022-09-26T07:17:30.086Z,17.54
2022-09-26T07:20:16.305Z,17.70
2022-09-26T07:23:06.706Z,17.21
2022-09-26T07:25:39.493Z,16.24
2022-09-26T07:28:10.104Z,16.23
2022-09-26T07:30:47.801Z,16.76
2022-09-26T07:33:24.888Z,16.93
2022-09-26T07:35:55.794Z,16.92
2022-09-26T07:38:26.065Z,16.73
2022-09-26T07:41:01.129Z,16.85
2022-09-26T07:44:21.734Z,17.32
2022-09-26T07:46:42.016Z,17.57
2022-09-26T07:49:30.126Z,17.71
2022-09-26T07:52:02.206Z,17.63
2022-09-26T07:54:43.747Z,17.62
2022-09-26T07:57:17.468Z,18.16
2022-09-26T08:00:13.444Z,18.57
2022-09-26T08:03:09.890Z,18.63
2022-09-26T08:05:40.910Z,18.74
2022-09-26T08:08:11.363Z,19.15
2022-09-26T08:11:03.932Z,19.11
2022-09-26T08:13:47.107Z,18.16
2022-09-26T08:16:24.898Z,17.25
2022-09-26T08:19:06.231Z,16.99
2022-09-26T08:21:36.863Z,17.95
2022-09-26T08:24:07.164Z,18.83
2022-09-26T08:26:56.793Z,19.12
2022-09-26T08:29:37.342Z,19.38
2022-09-26T08:32:09.616Z,19.41
2022-09-26T08:34:41.711Z,18.80
2022-09-26T08:37:35.210Z,17.85
2022-09-26T08:40:34.681Z,17.39
2022-09-26T08:43:31.486Z,17.82
2022-09-26T08:46:33.190Z,18.01
2022-09-26T08:49:30.551Z,17.94
2022-09-26T08:52:23.774Z,18.00
2022-09-26T08:54:58.290Z,18.14
2022-09-26T08:57:37.372Z,17.91
2022-09-26T09:00:19.683Z,17.86
2022-09-26T09:03:11.182Z,17.77
2022-09-26T09:05:51.869Z,17.66
2022-09-26T09:08:31.285Z,17.63
2022-09-26T09:11:39.406Z,17.41
2022-09-26T09:14:35.482Z,17.36
2022-09-26T09:17:31.065Z,17.27
2022-09-26T09:20:52.738Z,16.91
2022-09-26T09:24:17.822Z,16.66
2022-09-26T09:30:24.898Z,16.48
2022-09-26T09:32:59.122Z,16.33
2022-09-26T09:35:48.817Z,16.41
2022-09-26T09:38:44.449Z,16.73
2022-09-26T09:41:38.943Z,16.66
2022-09-26T09:44:46.983Z,16.50
2022-09-26T09:47:21.155Z,16.30
2022-09-26T09:49:50.665Z,16.23
2022-09-26T09:52:47.837Z,16.10
2022-09-26T09:55:33.930Z,15.92
2022-09-26T09:58:03.177Z,15.72
2022-09-26T10:00:41.829Z,15.70
2022-09-26T10:03:33.529Z,15.66
2022-09-26T10:06:08.576Z,15.63
2022-09-26T10:08:55.049Z,15.61
2022-09-26T10:12:05.017Z,15.73
2022-09-26T10:15:02.912Z,15.71
2022-09-26T10:18:23.949Z,15.87
2022-09-26T10:21:19.792Z,16.05
2022-09-26T10:23:51.149Z,16.18
2022-09-26T10:26:37.379Z,16.76
2022-09-26T10:29:39.914Z,17.28
2022-09-26T10:32:14.478Z,17.47
2022-09-26T10:35:05.667Z,17.50
2022-09-26T10:37:39.370Z,17.66
2022-09-26T10:40:48.746Z,17.69
2022-09-26T10:43:26.445Z,18.04
2022-09-26T10:46:13.426Z,18.14
2022-09-26T10:49:04.666Z,18.51
2022-09-26T10:52:22.205Z,18.35
2022-09-26T10:55:35.129Z,18.06
2022-09-26T10:58:15.353Z,17.74
2022-09-26T11:00:49.848Z,17.73
2022-09-26T11:03:32.938Z,18.17
2022-09-26T11:06:34.333Z,17.90
2022-09-26T11:09:23.976Z,17.74
2022-09-26T11:12:29.833Z,18.18
2022-09-26T11:15:09.479Z,18.57
2022-09-26T11:17:49.413Z,18.81
2022-09-26T11:20:55.605Z,18.89
2022-09-26T11:24:03.585Z,19.06
2022-09-26T11:26:49.821Z,19.23
2022-09-26T11:29:19.349Z,18.50
2022-09-26T11:32:07.531Z,17.66
2022-09-26T11:34:36.873Z,18.06
2022-09-26T11:37:27.608Z,18.92
2022-09-26T11:40:14.325Z,19.51
2022-09-26T11:43:09.404Z,19.66
2022-09-26T11:46:15.267Z,18.56
2022-09-26T11:49:27.175Z,17.77
2022-09-26T11:52:44.291Z,18.74
2022-09-26T11:55:25.269Z,19.21
2022-09-26T11:58:25.178Z,18.65
2022-09-26T12:01:02.561Z,17.69
2022-09-26T12:03:39.189Z,17.55
2022-09-26T12:06:22.093Z,18.52
2022-09-26T12:09:13.623Z,19.25
2022-09-26T12:12:08.446Z,19.72
2022-09-26T12:15:20.040Z,19.26
2022-09-26T12:18:32.756Z,17.97
2022-09-26T12:21:27.268Z,17.58
2022-09-26T12:24:08.841Z,18.44
2022-09-26T12:26:52.172Z,18.97
2022-09-26T12:29:30.361Z,19.32
2022-09-26T12:32:24.380Z,19.41
2022-09-26T12:35:05.458Z,18.53
2022-09-26T12:37:59.093Z,17.81
2022-09-26T12:40:57.988Z,17.68
2022-09-26T12:43:50.243Z,18.10
2022-09-26T12:46:33.905Z,18.68
2022-09-26T12:49:29.902Z,19.24
2022-09-26T12:52:26.577Z,19.30
2022-09-26T12:55:44.583Z,18.60
2022-09-26T12:58:50.184Z,17.89
2022-09-26T13:01:28.630Z,18.60
2022-09-26T13:04:17.679Z,19.51
2022-09-26T13:07:24.306Z,19.76
2022-09-26T13:10:08.250Z,18.84
2022-09-26T13:13:11.643Z,18.13
2022-09-26T13:16:22.234Z,17.54
2022-09-26T13:19:03.614Z,17.46
2022-09-26T13:21:41.768Z,17.96
2022-09-26T13:24:23.281Z,18.42
2022-09-26T13:27:19.456Z,19.10
2022-09-26T13:30:20.306Z,19.29
2022-09-26T13:33:18.690Z,18.63
2022-09-26T13:35:51.689Z,18.08
2022-09-26T13:38:41.830Z,18.45
2022-09-26T13:41:25.614Z,19.19
2022-09-26T13:44:32.213Z,19.98
2022-09-26T13:47:02.049Z,19.53
2022-09-26T13:49:36.441Z,18.90
2022-09-26T14:22:07.053Z,19.00
2022-09-26T14:24:47.052Z,19.13
2022-09-26T14:27:37.353Z,18.71
2022-09-26T14:30:28.777Z,18.22
2022-09-26T14:33:11.406Z,17.83
2022-09-26T14:35:40.910Z,17.57
2022-09-26T14:38:16.349Z,17.42
2022-09-26T14:40:59.244Z,17.75
2022-09-26T14:43:32.293Z,18.80
2022-09-26T14:46:06.981Z,19.19
2022-09-26T14:48:44.093Z,18.80
2022-09-26T14:51:17.753Z,18.26
2022-09-26T14:53:50.394Z,17.86
2022-09-26T14:56:35.651Z,17.56
2022-09-26T14:59:17.023Z,17.27
2022-09-26T15:01:48.966Z,17.04
2022-09-26T15:04:28.280Z,17.06
2022-09-26T15:07:06.763Z,17.87
2022-09-26T15:09:55.433Z,18.56
2022-09-26T15:12:44.841Z,18.88
2022-09-26T15:15:17.702Z,18.68
2022-09-26T15:17:54.579Z,18.17
2022-09-26T15:20:46.031Z,17.73
2022-09-26T15:23:31.689Z,17.38
2022-09-26T15:26:06.486Z,17.15
2022-09-26T15:28:38.797Z,17.14
2022-09-26T15:31:25.039Z,17.66
2022-09-26T15:34:05.790Z,18.33
2022-09-26T15:36:40.175Z,18.59
2022-09-26T15:39:32.564Z,18.18
2022-09-26T15:42:28.777Z,17.68
2022-09-26T15:45:01.275Z,17.31
2022-09-26T15:47:30.525Z,17.07
2022-09-26T15:50:22.841Z,16.89
2022-09-26T15:53:07.784Z,16.99
2022-09-26T15:56:09.957Z,18.02
2022-09-26T15:59:14.750Z,19.06
2022-09-26T16:01:49.442Z,18.98
2022-09-26T16:04:29.756Z,18.37
2022-09-26T16:06:59.185Z,17.82
2022-09-26T16:09:46.427Z,17.44
2022-09-26T16:12:16.755Z,17.10
2022-09-26T16:15:03.596Z,17.02
2022-09-26T16:17:48.721Z,17.72
2022-09-26T16:20:25.802Z,18.28
2022-09-26T16:23:05.152Z,18.61
2022-09-26T16:25:59.167Z,18.57
2022-09-26T16:28:44.080Z,17.97
2022-09-26T16:31:27.549Z,17.42
2022-09-26T16:34:02.868Z,16.97
2022-09-26T16:36:46.994Z,16.79
2022-09-26T16:39:30.557Z,17.36
2022-09-26T16:42:14.431Z,18.12
2022-09-26T16:45:15.108Z,18.67
2022-09-26T16:47:51.038Z,18.35
2022-09-26T16:50:34.318Z,17.61
2022-09-26T16:53:09.768Z,16.91
2022-09-26T16:55:40.424Z,16.40
2022-09-26T16:58:15.436Z,16.28
2022-09-26T17:01:04.418Z,17.37
2022-09-26T17:03:42.618Z,18.20
2022-09-26T17:06:17.101Z,17.93
2022-09-26T17:08:50.221Z,17.19
2022-09-26T17:11:20.062Z,16.55
2022-09-26T17:13:51.354Z,16.06
2022-09-26T17:16:23.253Z,15.83
2022-09-26T17:18:55.626Z,16.37
2022-09-26T17:21:41.792Z,16.75
2022-09-26T17:24:16.911Z,16.81
2022-09-26T17:26:59.657Z,16.99
2022-09-26T17:29:43.200Z,17.09
2022-09-26T17:32:45.524Z,17.20
2022-09-26T17:35:30.482Z,17.32
2022-09-26T17:38:10.043Z,17.35
2022-09-26T17:40:47.724Z,17.52
2022-09-26T17:43:28.039Z,17.67
2022-09-26T17:46:03.567Z,17.44
2022-09-26T17:48:43.115Z,16.76
2022-09-26T17:51:26.410Z,16.07
2022-09-26T17:54:12.758Z,15.51
2022-09-26T17:56:50.905Z,15.25
2022-09-26T17:59:29.968Z,15.44
2022-09-26T18:02:33.705Z,15.51
2022-09-26T18:05:16.127Z,15.53
2022-09-26T18:07:55.668Z,15.48
2022-09-26T18:10:35.571Z,15.39
2022-09-26T18:13:18.129Z,15.34
2022-09-26T18:16:04.447Z,15.25
2022-09-26T18:18:40.447Z,15.20
2022-09-26T18:21:19.715Z,15.01
2022-09-26T18:24:07.225Z,15.09
2022-09-26T18:26:52.481Z,15.35
2022-09-26T18:29:39.618Z,15.92
2022-09-26T18:32:31.514Z,16.27
2022-09-26T18:35:15.206Z,16.09
2022-09-26T18:37:51.543Z,15.72
2022-09-26T18:40:30.887Z,15.43
2022-09-26T18:43:13.601Z,15.30
2022-09-26T18:45:56.028Z,15.26
2022-09-26T18:48:39.589Z,15.05
2022-09-26T18:51:14.637Z,15.02
2022-09-26T18:53:50.541Z,14.92
2022-09-26T18:56:48.793Z,14.77
2022-09-26T18:59:26.752Z,14.80
2022-09-26T19:02:05.705Z,14.86
2022-09-26T19:04:43.067Z,14.88
2022-09-26T19:07:21.465Z,15.02
2022-09-26T19:09:58.585Z,15.15
2022-09-26T19:12:32.745Z,15.21
2022-09-26T19:15:18.981Z,15.27
2022-09-26T19:17:54.300Z,15.34
2022-09-26T19:20:32.560Z,15.40
2022-09-26T19:23:09.031Z,15.45
2022-09-26T19:25:47.858Z,15.39
2022-09-26T19:28:29.795Z,15.27
2022-09-26T19:31:07.746Z,14.98
2022-09-26T19:33:48.174Z,14.79
2022-09-26T19:36:23.766Z,14.60
2022-09-26T19:38:59.466Z,14.48
2022-09-26T19:41:33.850Z,14.46
2022-09-26T19:44:16.765Z,14.48
2022-09-26T19:46:50.357Z,14.52
2022-09-26T19:49:27.948Z,14.48
2022-09-26T19:52:08.287Z,14.49
2022-09-26T19:54:41.175Z,14.51
2022-09-26T19:57:25.058Z,14.49
2022-09-26T20:00:00.558Z,14.41
2022-09-26T20:02:33.191Z,14.44
2022-09-26T20:05:21.062Z,14.49
2022-09-26T20:07:54.844Z,14.48
2022-09-26T20:10:25.603Z,14.42
2022-09-26T20:12:54.782Z,14.31
2022-09-26T20:15:24.425Z,14.16
2022-09-26T20:17:55.520Z,14.22
2022-09-26T20:20:26.569Z,14.55
2022-09-26T20:22:56.970Z,14.82
2022-09-26T20:25:29.198Z,14.93
2022-09-26T20:28:02.582Z,14.96
2022-09-26T20:30:50.793Z,14.99
2022-09-26T20:33:24.508Z,14.95
2022-09-26T20:36:02.875Z,15.01
2022-09-26T20:38:42.097Z,15.24
2022-09-26T20:41:26.931Z,15.38
2022-09-26T20:44:02.787Z,15.38
2022-09-26T20:46:37.567Z,15.36
2022-09-26T20:49:15.276Z,15.60
2022-09-26T20:51:46.386Z,16.00
2022-09-26T20:54:26.082Z,16.27
2022-09-26T20:56:57.127Z,16.27
2022-09-26T20:59:27.459Z,16.15
2022-09-26T21:01:58.591Z,16.06
2022-09-26T21:04:32.460Z,16.01
2022-09-26T21:07:01.074Z,15.98
2022-09-26T21:09:30.056Z,16.17
2022-09-26T21:11:58.384Z,16.42
2022-09-26T21:14:26.724Z,16.51
2022-09-26T21:16:55.239Z,16.53
2022-09-26T21:19:25.129Z,16.49
2022-09-26T21:22:04.150Z,16.82
2022-09-26T21:24:45.959Z,16.97
2022-09-26T21:27:14.374Z,17.20
2022-09-26T21:29:46.610Z,17.31
2022-09-26T21:32:18.932Z,17.05
2022-09-26T21:34:57.731Z,16.17
2022-09-26T21:37:30.222Z,15.26
2022-09-26T21:39:58.954Z,14.79
2022-09-26T21:42:27.544Z,14.98
2022-09-26T21:45:03.360Z,14.88
2022-09-26T21:47:32.349Z,14.59
2022-09-26T21:50:00.757Z,14.39
2022-09-26T21:52:37.318Z,14.27
2022-09-26T21:55:07.182Z,14.37
2022-09-26T21:57:41.499Z,15.36
2022-09-26T22:00:15.299Z,16.31
2022-09-26T22:02:44.355Z,16.88
2022-09-26T22:05:13.367Z,17.18
2022-09-26T22:07:41.631Z,17.49
2022-09-26T22:10:12.775Z,17.66
2022-09-26T22:12:41.453Z,16.86
2022-09-26T22:15:10.611Z,15.98
2022-09-26T22:17:38.956Z,15.29
2022-09-26T22:20:08.244Z,15.01
2022-09-26T22:22:36.932Z,15.74
2022-09-26T22:25:10.468Z,16.50
2022-09-26T22:27:42.126Z,16.95
2022-09-26T22:30:10.978Z,17.23
2022-09-26T22:32:40.199Z,17.23
2022-09-26T22:35:11.425Z,16.47
2022-09-26T22:37:40.003Z,15.66
2022-09-26T22:40:09.292Z,15.00
2022-09-26T22:42:37.574Z,14.71
2022-09-26T22:45:09.740Z,15.38
2022-09-26T22:47:41.789Z,15.93
2022-09-26T22:50:10.795Z,16.23
2022-09-26T22:52:39.014Z,16.19
2022-09-26T22:55:08.442Z,16.31
2022-09-26T22:57:36.659Z,16.20
2022-09-26T23:00:06.266Z,16.06
2022-09-26T23:02:34.991Z,16.04
2022-09-26T23:05:04.053Z,16.53
2022-09-26T23:07:32.299Z,16.77
2022-09-26T23:10:00.802Z,16.20
2022-09-26T23:12:30.620Z,15.40
2022-09-26T23:14:58.949Z,14.74
2022-09-26T23:17:27.165Z,14.34
2022-09-26T23:19:55.465Z,14.38
2022-09-26T23:22:23.825Z,14.42
2022-09-26T23:24:51.995Z,14.38
2022-09-26T23:27:20.097Z,14.26
2022-09-26T23:35:58.396Z,14.31
2022-09-26T23:41:53.794Z,16.65
2022-09-26T23:47:37.487Z,17.30
2022-09-26T23:53:52.818Z,16.06
